Time;durP1;ratioP1;P1;durP2;ratioP2;P2;SDS_P1;SDS_P2;PMS_P1;PMS_P2;Temp;Humidity;BMP_temperature;BMP_pressure;BME280_temperature;BME280_humidity;BME280_pressure;Samples;Min_cycle;Max_cycle;Signal;HPM_P1;HPM_P2
2021/08/18 00:00:27;;;;;;;10.23;4.03;;;;;;;;;;10478757;28;20733;-68
2021/08/18 00:05:30;;;;;;;9.77;3.97;;;;;;;;;;10469239;28;20525;-69
2021/08/18 00:10:32;;;;;;;7.43;3.37;;;;;;;;;;10468659;28;20721;-68
2021/08/18 00:15:36;;;;;;;9.10;3.67;;;;;;;;;;10467637;28;20205;-70
2021/08/18 00:20:39;;;;;;;10.87;4.20;;;;;;;;;;10474817;28;20256;-68
2021/08/18 00:25:42;;;;;;;9.63;4.03;;;;;;;;;;10474886;28;20690;-69
2021/08/18 00:30:45;;;;;;;8.23;3.77;;;;;;;;;;10471482;28;20216;-68
2021/08/18 00:35:48;;;;;;;8.83;3.47;;;;;;;;;;10473428;28;20299;-68
2021/08/18 00:40:51;;;;;;;10.63;3.87;;;;;;;;;;10474101;28;20217;-69
2021/08/18 00:45:55;;;;;;;10.20;4.13;;;;;;;;;;10477877;28;20195;-68
2021/08/18 00:50:58;;;;;;;9.70;3.87;;;;;;;;;;10476154;28;20220;-68
2021/08/18 00:56:01;;;;;;;8.37;3.93;;;;;;;;;;10471107;28;20607;-67
2021/08/18 01:01:04;;;;;;;9.03;4.10;;;;;;;;;;10462924;28;20212;-68
2021/08/18 01:06:07;;;;;;;10.73;4.40;;;;;;;;;;10467728;28;20216;-67
2021/08/18 01:11:10;;;;;;;9.43;3.83;;;;;;;;;;10482745;28;20287;-67
2021/08/18 01:16:16;;;;;;;11.23;4.80;;;;;;;;;;10488316;28;20732;-68
2021/08/18 01:21:22;;;;;;;11.50;4.43;;;;;;;;;;10481146;28;20266;-66
2021/08/18 01:26:25;;;;;;;10.33;4.33;;;;;;;;;;10478939;28;20192;-66
2021/08/18 01:31:29;;;;;;;12.03;4.67;;;;;;;;;;10487785;28;20542;-66
2021/08/18 01:36:32;;;;;;;10.63;5.30;;;;;;;;;;10477636;28;20710;-68
2021/08/18 01:41:35;;;;;;;11.40;5.10;;;;;;;;;;10474430;28;20293;-66
2021/08/18 01:46:39;;;;;;;11.57;5.20;;;;;;;;;;10478084;28;20202;-67
2021/08/18 01:51:42;;;;;;;8.97;3.87;;;;;;;;;;10478966;28;20580;-69
2021/08/18 01:56:45;;;;;;;11.57;5.13;;;;;;;;;;10477655;28;20240;-68
2021/08/18 02:01:49;;;;;;;13.77;4.77;;;;;;;;;;10475870;28;20232;-67
2021/08/18 02:06:52;;;;;;;12.73;5.30;;;;;;;;;;10474152;28;20200;-68
2021/08/18 02:11:54;;;;;;;12.07;4.83;;;;;;;;;;10483023;28;20220;-66
2021/08/18 02:16:58;;;;;;;14.10;5.67;;;;;;;;;;10478693;28;20299;-67
2021/08/18 02:22:01;;;;;;;13.80;5.53;;;;;;;;;;10477179;28;20223;-67
2021/08/18 02:27:03;;;;;;;14.40;5.87;;;;;;;;;;10478753;28;20686;-68
2021/08/18 02:32:08;;;;;;;12.97;5.90;;;;;;;;;;10471231;28;20703;-69
2021/08/18 02:37:10;;;;;;;13.57;5.40;;;;;;;;;;10470289;28;20239;-67
2021/08/18 02:42:13;;;;;;;10.33;4.20;;;;;;;;;;10474538;28;20220;-68
2021/08/18 02:47:17;;;;;;;13.23;5.63;;;;;;;;;;10466275;28;20651;-68
2021/08/18 02:52:19;;;;;;;13.13;5.67;;;;;;;;;;10473707;28;20325;-67
2021/08/18 02:57:22;;;;;;;15.20;5.90;;;;;;;;;;10471309;28;20217;-67
2021/08/18 03:02:26;;;;;;;13.17;5.63;;;;;;;;;;10476726;28;20216;-68
2021/08/18 03:07:29;;;;;;;11.33;4.90;;;;;;;;;;10468615;28;20199;-67
2021/08/18 03:12:32;;;;;;;12.73;5.13;;;;;;;;;;10470869;28;20220;-67
2021/08/18 03:17:36;;;;;;;5.20;2.27;;;;;;;;;;10469715;28;20729;-67
2021/08/18 03:22:38;;;;;;;14.47;6.10;;;;;;;;;;10466150;28;20600;-68
2021/08/18 03:27:41;;;;;;;11.73;5.20;;;;;;;;;;10463186;28;20679;-66
2021/08/18 03:32:45;;;;;;;13.00;5.27;;;;;;;;;;10481384;28;20220;-66
2021/08/18 03:37:48;;;;;;;14.67;5.80;;;;;;;;;;10465774;28;20212;-66
2021/08/18 03:42:50;;;;;;;13.53;6.20;;;;;;;;;;10478003;28;20299;-66
2021/08/18 03:47:55;;;;;;;15.10;6.33;;;;;;;;;;10467610;28;20185;-66
2021/08/18 03:52:57;;;;;;;13.03;5.93;;;;;;;;;;10483215;28;20656;-66
2021/08/18 03:58:00;;;;;;;15.53;6.30;;;;;;;;;;10475441;28;20569;-67
2021/08/18 04:03:04;;;;;;;13.60;6.50;;;;;;;;;;10469165;28;20245;-68
2021/08/18 04:08:07;;;;;;;14.67;6.50;;;;;;;;;;10470141;28;20267;-67
2021/08/18 04:13:10;;;;;;;14.80;6.47;;;;;;;;;;10470096;28;20219;-66
2021/08/18 04:18:14;;;;;;;10.33;4.50;;;;;;;;;;10473161;28;20680;-67
2021/08/18 04:23:16;;;;;;;13.77;6.23;;;;;;;;;;10477018;28;20296;-65
2021/08/18 04:28:19;;;;;;;14.77;6.70;;;;;;;;;;10477613;28;20280;-66
2021/08/18 04:33:23;;;;;;;12.63;5.90;;;;;;;;;;10473703;28;20244;-68
2021/08/18 04:38:25;;;;;;;14.30;6.07;;;;;;;;;;10480514;28;20247;-67
2021/08/18 04:43:28;;;;;;;13.83;5.97;;;;;;;;;;10479419;28;20295;-68
2021/08/18 04:48:32;;;;;;;13.47;6.03;;;;;;;;;;10477700;28;20235;-67
2021/08/18 04:53:35;;;;;;;14.60;5.80;;;;;;;;;;10480178;28;20217;-67
2021/08/18 04:58:37;;;;;;;12.60;4.73;;;;;;;;;;10477691;28;20208;-66
2021/08/18 05:03:41;;;;;;;13.00;5.87;;;;;;;;;;10478425;28;20255;-67
2021/08/18 05:08:44;;;;;;;14.00;6.10;;;;;;;;;;10472476;28;20189;-66
2021/08/18 05:13:46;;;;;;;13.67;6.17;;;;;;;;;;10475578;28;20244;-66
2021/08/18 05:18:50;;;;;;;14.90;6.07;;;;;;;;;;10477012;28;20649;-69
2021/08/18 05:23:53;;;;;;;13.60;6.10;;;;;;;;;;10474922;28;20228;-70
2021/08/18 05:28:55;;;;;;;13.70;6.63;;;;;;;;;;10482381;28;20673;-69
2021/08/18 05:33:59;;;;;;;13.70;6.40;;;;;;;;;;10482017;28;20229;-67
2021/08/18 05:39:02;;;;;;;13.83;6.73;;;;;;;;;;10484697;28;20238;-67
2021/08/18 05:44:04;;;;;;;8.93;2.97;;;;;;;;;;10474647;28;20229;-69
2021/08/18 05:49:08;;;;;;;14.27;6.70;;;;;;;;;;10479028;28;20258;-70
2021/08/18 05:54:11;;;;;;;14.73;6.73;;;;;;;;;;10478218;28;20722;-69
2021/08/18 05:59:14;;;;;;;14.53;6.73;;;;;;;;;;10469618;28;20630;-70
2021/08/18 06:04:18;;;;;;;17.20;7.00;;;;;;;;;;10474413;28;20731;-69
2021/08/18 06:09:20;;;;;;;15.73;7.77;;;;;;;;;;10487591;28;20649;-68
2021/08/18 06:14:23;;;;;;;13.03;5.57;;;;;;;;;;10473923;28;20212;-67
2021/08/18 06:19:27;;;;;;;9.93;3.30;;;;;;;;;;10471368;28;20290;-68
2021/08/18 06:24:29;;;;;;;14.40;6.53;;;;;;;;;;10483259;28;20240;-68
2021/08/18 06:29:34;;;;;;;15.23;7.43;;;;;;;;;;10487085;28;20189;-68
2021/08/18 06:34:39;;;;;;;17.90;8.20;;;;;;;;;;10486725;28;20246;-68
2021/08/18 06:39:41;;;;;;;15.80;6.50;;;;;;;;;;10486037;28;20244;-69
2021/08/18 06:44:44;;;;;;;18.00;8.50;;;;;;;;;;10485583;28;20227;-69
2021/08/18 06:49:48;;;;;;;17.57;8.37;;;;;;;;;;10473813;28;20221;-68
2021/08/18 06:54:51;;;;;;;18.27;8.27;;;;;;;;;;10474054;28;20227;-69
2021/08/18 06:59:53;;;;;;;16.67;7.93;;;;;;;;;;10484977;28;20572;-68
2021/08/18 07:04:58;;;;;;;15.77;6.97;;;;;;;;;;10461119;28;20271;-69
2021/08/18 07:10:00;;;;;;;17.13;8.57;;;;;;;;;;10476272;28;20318;-69
2021/08/18 07:15:03;;;;;;;17.40;8.83;;;;;;;;;;10468877;28;20325;-69
2021/08/18 07:20:07;;;;;;;17.73;9.00;;;;;;;;;;10472643;28;20232;-68
2021/08/18 07:25:11;;;;;;;14.97;7.17;;;;;;;;;;10469213;28;20250;-68
2021/08/18 07:30:14;;;;;;;15.53;9.10;;;;;;;;;;10476091;28;20676;-67
2021/08/18 07:35:17;;;;;;;15.77;8.47;;;;;;;;;;10466526;28;20246;-68
2021/08/18 07:40:21;;;;;;;16.03;8.93;;;;;;;;;;10475938;28;20949;-68
2021/08/18 07:45:23;;;;;;;17.33;9.10;;;;;;;;;;10478458;28;20268;-67
2021/08/18 07:50:27;;;;;;;16.50;8.90;;;;;;;;;;10482750;28;20337;-68
2021/08/18 07:55:30;;;;;;;15.27;8.50;;;;;;;;;;10472976;28;20215;-70
2021/08/18 08:00:37;;;;;;;13.63;7.40;;;;;;;;;;10473876;28;20296;-69
2021/08/18 08:05:42;;;;;;;14.68;7.85;;;;;;;;;;10473014;28;21507;-68
2021/08/18 08:10:44;;;;;;;15.43;8.13;;;;;;;;;;10475995;28;20537;-68
2021/08/18 08:15:47;;;;;;;16.00;8.88;;;;;;;;;;10474206;28;20278;-68
2021/08/18 08:20:51;;;;;;;14.23;8.07;;;;;;;;;;10472765;28;20217;-68
2021/08/18 08:25:54;;;;;;;16.27;8.77;;;;;;;;;;10476392;28;20641;-68
2021/08/18 08:30:56;;;;;;;14.73;8.10;;;;;;;;;;10477685;28;20641;-68
2021/08/18 08:36:00;;;;;;;15.15;8.18;;;;;;;;;;10467824;28;20223;-67
2021/08/18 08:41:04;;;;;;;14.95;8.45;;;;;;;;;;10475176;28;20224;-69
2021/08/18 08:46:07;;;;;;;13.98;7.85;;;;;;;;;;10473760;28;20194;-69
2021/08/18 08:51:11;;;;;;;13.55;7.05;;;;;;;;;;10478571;28;20216;-68
2021/08/18 08:56:14;;;;;;;13.97;7.93;;;;;;;;;;10473379;28;20200;-69
2021/08/18 09:01:16;;;;;;;14.05;7.55;;;;;;;;;;10470990;28;20309;-68
2021/08/18 09:06:21;;;;;;;14.30;7.03;;;;;;;;;;10471062;28;20227;-69
2021/08/18 09:11:24;;;;;;;14.93;7.83;;;;;;;;;;10475621;28;20220;-66
2021/08/18 09:16:32;;;;;;;16.37;8.43;;;;;;;;;;10481833;28;20247;-68
2021/08/18 09:21:37;;;;;;;14.80;7.37;;;;;;;;;;10476411;28;20303;-66
2021/08/18 09:26:41;;;;;;;16.33;7.80;;;;;;;;;;10477898;28;20232;-67
2021/08/18 09:31:43;;;;;;;14.87;7.87;;;;;;;;;;10471271;28;20212;-68
2021/08/18 09:36:47;;;;;;;14.20;7.50;;;;;;;;;;10482506;28;20261;-67
2021/08/18 09:41:50;;;;;;;12.27;6.60;;;;;;;;;;10483621;28;20935;-67
2021/08/18 09:47:04;;;;;;;13.47;7.13;;;;;;;;;;10488371;28;20675;-68
2021/08/18 09:52:08;;;;;;;13.93;6.80;;;;;;;;;;10483676;28;20291;-67
2021/08/18 09:57:10;;;;;;;15.70;7.60;;;;;;;;;;10485984;28;20216;-67
2021/08/18 10:02:14;;;;;;;13.23;6.63;;;;;;;;;;10481809;28;20243;-68
2021/08/18 10:07:18;;;;;;;12.33;6.40;;;;;;;;;;10481342;28;20606;-69
2021/08/18 10:12:21;;;;;;;12.30;6.40;;;;;;;;;;10484785;28;20273;-68
2021/08/18 10:17:24;;;;;;;13.47;7.03;;;;;;;;;;10478809;28;21030;-69
2021/08/18 10:22:29;;;;;;;10.33;5.73;;;;;;;;;;10475477;28;20270;-68
2021/08/18 10:27:46;;;;;;;13.35;7.30;;;;;;;;;;10482698;28;20197;-68
2021/08/18 10:32:49;;;;;;;12.37;6.50;;;;;;;;;;10474731;28;20776;-68
2021/08/18 10:38:13;;;;;;;13.57;6.63;;;;;;;;;;10481570;28;20217;-69
2021/08/18 10:43:31;;;;;;;13.33;6.37;;;;;;;;;;10480780;28;20211;-66
2021/08/18 10:48:57;;;;;;;10.90;6.27;;;;;;;;;;10471068;28;20192;-69
2021/08/18 10:54:21;;;;;;;11.87;5.93;;;;;;;;;;10466401;28;20304;-67
2021/08/18 10:59:45;;;;;;;13.40;6.13;;;;;;;;;;10467802;28;20223;-67
2021/08/18 11:04:48;;;;;;;12.68;6.07;;;;;;;;;;10469438;28;20209;-67
2021/08/18 11:10:02;;;;;;;12.75;5.50;;;;;;;;;;10485796;28;20560;-69
2021/08/18 11:15:35;;;;;;;12.07;5.88;;;;;;;;;;10480515;28;20204;-69
2021/08/18 11:20:46;;;;;;;11.77;5.88;;;;;;;;;;10477498;28;20253;-69
2021/08/18 11:25:48;;;;;;;11.95;6.32;;;;;;;;;;10484474;28;20196;-67
2021/08/18 11:30:59;;;;;;;11.23;5.82;;;;;;;;;;10481626;28;20307;-68
2021/08/18 11:36:12;;;;;;;10.63;5.13;;;;;;;;;;10486271;28;20196;-69
2021/08/18 11:41:14;;;;;;;11.52;5.63;;;;;;;;;;10481032;28;20217;-69
2021/08/18 11:46:25;;;;;;;10.13;4.85;;;;;;;;;;10481625;28;20200;-69
2021/08/18 11:51:29;;;;;;;16.52;9.57;;;;;;;;;;10482306;28;20212;-68
2021/08/18 11:56:32;;;;;;;10.67;5.47;;;;;;;;;;10481581;28;20220;-68
2021/08/18 12:01:35;;;;;;;11.37;6.10;;;;;;;;;;10479890;28;20246;-68
2021/08/18 12:06:39;;;;;;;9.68;4.70;;;;;;;;;;10471001;28;20203;-69
2021/08/18 12:11:42;;;;;;;10.00;4.67;;;;;;;;;;10478711;28;20201;-69
2021/08/18 12:16:45;;;;;;;7.65;4.10;;;;;;;;;;10479635;28;20208;-69
2021/08/18 12:22:02;;;;;;;7.32;4.15;;;;;;;;;;10478314;28;20216;-69
2021/08/18 12:27:05;;;;;;;8.40;4.20;;;;;;;;;;10475888;28;20734;-71
2021/08/18 12:32:09;;;;;;;8.32;4.47;;;;;;;;;;10474504;28;20315;-70
2021/08/18 12:37:15;;;;;;;7.80;3.97;;;;;;;;;;10480502;28;20193;-71
2021/08/18 12:42:22;;;;;;;9.95;3.80;;;;;;;;;;10479874;28;20219;-69
2021/08/18 12:47:29;;;;;;;9.48;4.35;;;;;;;;;;10480237;28;20200;-67
2021/08/18 12:52:33;;;;;;;8.48;4.03;;;;;;;;;;10481869;28;20204;-69
2021/08/18 12:57:36;;;;;;;7.78;3.40;;;;;;;;;;10471256;28;20277;-67
2021/08/18 13:02:38;;;;;;;9.95;4.13;;;;;;;;;;10479101;28;20222;-69
2021/08/18 13:07:42;;;;;;;8.40;4.20;;;;;;;;;;10469413;28;20199;-69
2021/08/18 13:12:45;;;;;;;7.95;3.50;;;;;;;;;;10478017;28;20242;-69
2021/08/18 13:17:48;;;;;;;8.18;3.83;;;;;;;;;;10476590;28;20218;-68
2021/08/18 13:22:51;;;;;;;9.02;4.20;;;;;;;;;;10478888;28;20649;-69
2021/08/18 13:27:55;;;;;;;8.43;4.10;;;;;;;;;;10485795;28;20210;-70
2021/08/18 13:32:57;;;;;;;9.75;4.00;;;;;;;;;;10481873;28;20579;-70
2021/08/18 13:38:01;;;;;;;8.10;3.58;;;;;;;;;;10480899;28;20197;-71
2021/08/18 13:43:04;;;;;;;7.47;3.60;;;;;;;;;;10481439;28;20219;-70
2021/08/18 13:48:06;;;;;;;6.95;3.30;;;;;;;;;;10479827;28;20240;-71
2021/08/18 13:53:11;;;;;;;7.85;3.65;;;;;;;;;;10488998;28;20528;-70
2021/08/18 13:58:13;;;;;;;8.40;3.80;;;;;;;;;;10485331;28;20284;-71
2021/08/18 14:03:17;;;;;;;8.00;3.90;;;;;;;;;;10477535;28;20219;-72
2021/08/18 14:08:21;;;;;;;6.72;3.38;;;;;;;;;;10479648;28;20268;-69
2021/08/18 14:13:24;;;;;;;7.20;3.13;;;;;;;;;;10476644;28;20277;-70
2021/08/18 14:18:27;;;;;;;6.32;2.95;;;;;;;;;;10483047;28;20295;-71
2021/08/18 14:23:31;;;;;;;6.38;3.00;;;;;;;;;;10478514;28;20282;-69
2021/08/18 14:28:35;;;;;;;7.25;2.90;;;;;;;;;;10480599;28;20568;-70
2021/08/18 14:33:38;;;;;;;7.60;3.00;;;;;;;;;;10477147;28;20553;-69
2021/08/18 14:38:42;;;;;;;6.90;3.00;;;;;;;;;;10473355;28;20995;-70
2021/08/18 14:43:45;;;;;;;7.00;2.50;;;;;;;;;;10475764;28;20220;-69
2021/08/18 14:48:47;;;;;;;6.70;2.92;;;;;;;;;;10487587;28;20254;-69
2021/08/18 14:53:51;;;;;;;5.90;2.80;;;;;;;;;;10479438;28;20395;-69
2021/08/18 14:58:54;;;;;;;6.70;3.05;;;;;;;;;;10473067;28;20695;-69
2021/08/18 15:03:57;;;;;;;6.40;2.92;;;;;;;;;;10476412;28;20209;-69
2021/08/18 15:09:01;;;;;;;4.95;2.20;;;;;;;;;;10484511;28;20239;-69
2021/08/18 15:14:03;;;;;;;5.57;2.80;;;;;;;;;;10474089;28;20220;-69
2021/08/18 15:19:07;;;;;;;5.05;2.35;;;;;;;;;;10473598;28;20331;-70
2021/08/18 15:24:11;;;;;;;6.32;2.72;;;;;;;;;;10470574;28;20374;-70
2021/08/18 15:29:13;;;;;;;4.40;2.30;;;;;;;;;;10483817;28;20238;-71
2021/08/18 15:34:17;;;;;;;5.45;2.65;;;;;;;;;;10483214;28;20289;-69
2021/08/18 15:39:21;;;;;;;7.20;2.58;;;;;;;;;;10485908;28;20301;-71
2021/08/18 15:44:23;;;;;;;6.95;2.70;;;;;;;;;;10481557;28;20271;-70
2021/08/18 15:49:26;;;;;;;7.25;2.97;;;;;;;;;;10483190;28;20192;-68
2021/08/18 15:54:30;;;;;;;5.90;2.75;;;;;;;;;;10478007;28;20292;-71
2021/08/18 15:59:33;;;;;;;5.18;2.40;;;;;;;;;;10481940;28;20266;-69
2021/08/18 16:04:36;;;;;;;7.35;3.80;;;;;;;;;;10475144;28;20221;-71
2021/08/18 16:09:40;;;;;;;6.82;2.65;;;;;;;;;;10480189;28;20714;-70
2021/08/18 16:14:43;;;;;;;4.68;2.50;;;;;;;;;;10480510;28;20200;-70
2021/08/18 16:19:46;;;;;;;5.60;2.83;;;;;;;;;;10475992;28;20647;-70
2021/08/18 16:24:49;;;;;;;5.30;2.53;;;;;;;;;;10466893;28;20285;-71
2021/08/18 16:29:52;;;;;;;5.65;2.53;;;;;;;;;;10472818;28;20185;-71
2021/08/18 16:34:55;;;;;;;6.80;3.50;;;;;;;;;;10469733;28;20292;-70
2021/08/18 16:39:59;;;;;;;14.10;9.52;;;;;;;;;;10484629;28;20239;-72
2021/08/18 16:45:01;;;;;;;8.25;4.00;;;;;;;;;;10479047;28;20184;-71
2021/08/18 16:50:04;;;;;;;7.38;3.10;;;;;;;;;;10472357;28;20204;-72
2021/08/18 16:55:09;;;;;;;7.45;3.08;;;;;;;;;;10472135;28;20602;-70
2021/08/18 17:00:12;;;;;;;6.38;2.97;;;;;;;;;;10475903;28;20208;-70
2021/08/18 17:05:15;;;;;;;5.73;2.53;;;;;;;;;;10474972;28;20188;-71
2021/08/18 17:10:19;;;;;;;7.00;3.40;;;;;;;;;;10476089;28;20291;-68
2021/08/18 17:15:22;;;;;;;7.13;2.90;;;;;;;;;;10476413;28;20602;-73
2021/08/18 17:20:24;;;;;;;8.50;3.87;;;;;;;;;;10471536;28;20739;-69
2021/08/18 17:25:29;;;;;;;6.50;3.30;;;;;;;;;;10467942;28;20280;-70
2021/08/18 17:30:31;;;;;;;13.37;3.80;;;;;;;;;;10468873;28;20212;-71
2021/08/18 17:35:34;;;;;;;7.27;2.93;;;;;;;;;;10474405;28;20561;-70
2021/08/18 17:40:38;;;;;;;8.10;4.03;;;;;;;;;;10463127;28;20212;-71
2021/08/18 17:45:45;;;;;;;6.70;3.10;;;;;;;;;;10468332;28;20202;-71
2021/08/18 17:50:48;;;;;;;8.03;3.40;;;;;;;;;;10472921;28;20214;-70
2021/08/18 17:55:51;;;;;;;8.10;3.30;;;;;;;;;;10473841;28;20184;-71
2021/08/18 18:00:54;;;;;;;6.93;3.20;;;;;;;;;;10478438;28;20321;-72
2021/08/18 18:05:57;;;;;;;10.00;4.40;;;;;;;;;;10475993;28;20264;-69
2021/08/18 18:11:02;;;;;;;9.63;4.77;;;;;;;;;;10486584;28;20704;-71
2021/08/18 18:16:04;;;;;;;8.17;3.87;;;;;;;;;;10482532;28;20189;-71
2021/08/18 18:21:08;;;;;;;9.50;4.10;;;;;;;;;;10484867;28;20687;-71
2021/08/18 18:26:11;;;;;;;8.90;4.17;;;;;;;;;;10485383;28;20674;-71
2021/08/18 18:31:14;;;;;;;9.93;4.90;;;;;;;;;;10480686;28;20205;-73
2021/08/18 18:36:17;;;;;;;15.73;9.63;;;;;;;;;;10487509;28;20302;-72
2021/08/18 18:41:22;;;;;;;9.17;4.33;;;;;;;;;;10486469;28;20699;-75
2021/08/18 18:46:24;;;;;;;10.13;4.60;;;;;;;;;;10481706;28;20208;-72
2021/08/18 18:51:27;;;;;;;12.53;7.07;;;;;;;;;;10484907;28;20231;-71
2021/08/18 18:56:32;;;;;;;9.47;3.93;;;;;;;;;;10478094;28;20276;-68
2021/08/18 19:01:34;;;;;;;10.93;5.73;;;;;;;;;;10480709;28;20594;-71
2021/08/18 19:06:37;;;;;;;9.37;3.80;;;;;;;;;;10480677;28;20227;-71
2021/08/18 19:11:46;;;;;;;13.00;7.20;;;;;;;;;;10481002;28;20266;-73
2021/08/18 19:16:49;;;;;;;13.37;6.97;;;;;;;;;;10482259;28;20192;-69
2021/08/18 19:21:55;;;;;;;11.07;5.90;;;;;;;;;;10482286;28;20228;-71
2021/08/18 19:26:59;;;;;;;10.03;4.97;;;;;;;;;;10475486;28;20215;-72
2021/08/18 19:32:02;;;;;;;11.10;5.23;;;;;;;;;;10462218;28;20216;-72
2021/08/18 19:37:05;;;;;;;12.30;5.63;;;;;;;;;;10478840;28;20200;-71
2021/08/18 19:42:09;;;;;;;12.07;6.40;;;;;;;;;;10483147;28;20294;-72
2021/08/18 19:47:13;;;;;;;10.90;6.03;;;;;;;;;;10482510;28;20196;-71
2021/08/18 19:52:16;;;;;;;11.37;6.10;;;;;;;;;;10481837;28;20212;-72
2021/08/18 19:57:20;;;;;;;11.80;5.95;;;;;;;;;;10478577;28;21209;-72
2021/08/18 20:02:22;;;;;;;12.03;5.60;;;;;;;;;;10480125;28;20303;-72
2021/08/18 20:07:25;;;;;;;10.47;5.30;;;;;;;;;;10480073;28;20204;-71
2021/08/18 20:12:33;;;;;;;9.97;5.07;;;;;;;;;;10479426;28;20236;-72
2021/08/18 20:17:36;;;;;;;10.27;5.07;;;;;;;;;;10475984;28;20205;-71
2021/08/18 20:22:39;;;;;;;8.77;4.37;;;;;;;;;;10477326;28;20680;-72
2021/08/18 20:27:43;;;;;;;9.03;4.87;;;;;;;;;;10479428;28;20193;-71
2021/08/18 20:32:45;;;;;;;8.70;4.70;;;;;;;;;;10476866;28;20291;-70
2021/08/18 20:37:48;;;;;;;9.73;4.23;;;;;;;;;;10481297;28;20199;-71
2021/08/18 20:42:52;;;;;;;8.87;4.20;;;;;;;;;;10481762;28;20200;-72
2021/08/18 20:47:55;;;;;;;9.77;4.97;;;;;;;;;;10483227;28;20188;-68
2021/08/18 20:52:58;;;;;;;11.23;4.80;;;;;;;;;;10474823;28;20243;-69
2021/08/18 20:58:03;;;;;;;9.90;4.40;;;;;;;;;;10473552;28;20201;-69
2021/08/18 21:03:05;;;;;;;9.80;5.03;;;;;;;;;;10467966;28;20216;-71
2021/08/18 21:08:08;;;;;;;10.50;4.67;;;;;;;;;;10478544;28;20283;-70
2021/08/18 21:13:13;;;;;;;10.43;5.10;;;;;;;;;;10476955;28;20286;-71
2021/08/18 21:18:15;;;;;;;10.20;5.43;;;;;;;;;;10475106;28;20549;-72
2021/08/18 21:23:18;;;;;;;25.47;8.63;;;;;;;;;;10467880;28;20299;-71
2021/08/18 21:28:22;;;;;;;16.30;6.17;;;;;;;;;;10480074;28;20268;-70
2021/08/18 21:33:24;;;;;;;11.57;5.67;;;;;;;;;;10479496;28;20265;-73
2021/08/18 21:38:27;;;;;;;11.37;5.43;;;;;;;;;;10480739;28;20184;-71
2021/08/18 21:43:31;;;;;;;9.17;3.90;;;;;;;;;;10485680;28;20240;-71
2021/08/18 21:48:34;;;;;;;9.33;3.93;;;;;;;;;;10482799;28;20391;-70
2021/08/18 21:53:37;;;;;;;9.83;3.77;;;;;;;;;;10485521;28;20207;-70
2021/08/18 21:58:41;;;;;;;6.97;3.20;;;;;;;;;;10482729;28;20746;-70
2021/08/18 22:03:44;;;;;;;9.67;3.30;;;;;;;;;;10481242;28;20699;-71
2021/08/18 22:08:47;;;;;;;7.77;3.43;;;;;;;;;;10485822;28;20213;-70
2021/08/18 22:13:51;;;;;;;7.47;3.10;;;;;;;;;;10487399;28;20857;-71
2021/08/18 22:18:54;;;;;;;7.53;3.10;;;;;;;;;;10477744;28;20257;-72
2021/08/18 22:23:57;;;;;;;9.23;3.00;;;;;;;;;;10478338;28;20575;-72
2021/08/18 22:29:01;;;;;;;7.77;3.07;;;;;;;;;;10483868;28;20193;-69
2021/08/18 22:34:03;;;;;;;7.57;2.80;;;;;;;;;;10469619;28;20282;-71
2021/08/18 22:39:06;;;;;;;7.30;3.03;;;;;;;;;;10475403;28;20188;-70
2021/08/18 22:44:10;;;;;;;7.10;2.67;;;;;;;;;;10471825;28;20625;-71
2021/08/18 22:49:12;;;;;;;6.70;2.83;;;;;;;;;;10479703;28;20263;-69
2021/08/18 22:54:15;;;;;;;6.30;3.20;;;;;;;;;;10476462;28;20285;-71
2021/08/18 22:59:19;;;;;;;8.20;3.43;;;;;;;;;;10476671;28;20280;-71
2021/08/18 23:04:21;;;;;;;8.33;3.40;;;;;;;;;;10471388;28;20658;-71
2021/08/18 23:09:24;;;;;;;7.00;3.10;;;;;;;;;;10471966;28;20201;-71
2021/08/18 23:14:28;;;;;;;7.20;3.13;;;;;;;;;;10478121;28;20303;-73
2021/08/18 23:19:31;;;;;;;7.67;3.20;;;;;;;;;;10472932;28;20299;-70
2021/08/18 23:24:34;;;;;;;6.80;3.13;;;;;;;;;;10483084;28;20694;-72
2021/08/18 23:29:38;;;;;;;6.97;2.83;;;;;;;;;;10478049;28;20216;-72
2021/08/18 23:34:41;;;;;;;7.43;2.90;;;;;;;;;;10482160;28;20200;-69
2021/08/18 23:39:43;;;;;;;6.33;3.10;;;;;;;;;;10482252;28;20613;-69
2021/08/18 23:44:47;;;;;;;6.13;2.87;;;;;;;;;;10482614;28;20239;-71
2021/08/18 23:49:51;;;;;;;7.50;2.77;;;;;;;;;;10481762;28;20702;-70
2021/08/18 23:54:55;;;;;;;6.87;2.97;;;;;;;;;;10479448;28;20188;-71
2021/08/18 23:59:58;;;;;;;6.90;2.80;;;;;;;;;;10477966;28;20266;-70
